sensor_id;sensor_type;location;lat;lon;timestamp;P1;durP1;ratioP1;P2;durP2;ratioP2
27071;SDS011;14613;46.308;25.288;2022-07-29T00:01:06;4.85;;;4.03;;
27071;SDS011;14613;46.308;25.288;2022-07-29T00:03:32;6.95;;;4.07;;
27071;SDS011;14613;46.308;25.288;2022-07-29T00:05:58;8.50;;;4.40;;
27071;SDS011;14613;46.308;25.288;2022-07-29T00:08:23;7.20;;;4.50;;
27071;SDS011;14613;46.308;25.288;2022-07-29T00:10:49;7.38;;;4.40;;
27071;SDS011;14613;46.308;25.288;2022-07-29T00:13:15;4.13;;;3.75;;
27071;SDS011;14613;46.308;25.288;2022-07-29T00:15:41;8.82;;;4.18;;
27071;SDS011;14613;46.308;25.288;2022-07-29T00:18:06;5.70;;;4.57;;
27071;SDS011;14613;46.308;25.288;2022-07-29T00:20:34;4.97;;;4.22;;
27071;SDS011;14613;46.308;25.288;2022-07-29T00:22:59;5.75;;;4.45;;
27071;SDS011;14613;46.308;25.288;2022-07-29T00:25:25;6.60;;;4.28;;
27071;SDS011;14613;46.308;25.288;2022-07-29T00:27:51;7.30;;;4.55;;
27071;SDS011;14613;46.308;25.288;2022-07-29T00:30:16;4.97;;;4.32;;
27071;SDS011;14613;46.308;25.288;2022-07-29T00:32:42;7.80;;;4.88;;
27071;SDS011;14613;46.308;25.288;2022-07-29T00:35:08;7.60;;;4.43;;
27071;SDS011;14613;46.308;25.288;2022-07-29T00:37:53;6.38;;;4.68;;
27071;SDS011;14613;46.308;25.288;2022-07-29T00:40:19;4.85;;;4.15;;
27071;SDS011;14613;46.308;25.288;2022-07-29T00:42:49;8.15;;;4.80;;
27071;SDS011;14613;46.308;25.288;2022-07-29T00:45:18;6.85;;;4.50;;
27071;SDS011;14613;46.308;25.288;2022-07-29T00:47:44;6.68;;;4.70;;
27071;SDS011;14613;46.308;25.288;2022-07-29T00:50:11;6.40;;;5.00;;
27071;SDS011;14613;46.308;25.288;2022-07-29T00:52:38;6.47;;;4.85;;
27071;SDS011;14613;46.308;25.288;2022-07-29T00:55:06;8.45;;;4.47;;
27071;SDS011;14613;46.308;25.288;2022-07-29T00:57:37;4.78;;;4.35;;
27071;SDS011;14613;46.308;25.288;2022-07-29T01:00:04;4.70;;;4.22;;
27071;SDS011;14613;46.308;25.288;2022-07-29T01:02:32;4.68;;;4.28;;
27071;SDS011;14613;46.308;25.288;2022-07-29T01:04:57;4.72;;;4.30;;
27071;SDS011;14613;46.308;25.288;2022-07-29T01:07:27;5.45;;;4.40;;
27071;SDS011;14613;46.308;25.288;2022-07-29T01:09:53;6.88;;;4.82;;
27071;SDS011;14613;46.308;25.288;2022-07-29T01:12:24;7.22;;;5.03;;
27071;SDS011;14613;46.308;25.288;2022-07-29T01:14:52;6.53;;;5.13;;
27071;SDS011;14613;46.308;25.288;2022-07-29T01:23:23;6.90;;;4.80;;
27071;SDS011;14613;46.308;25.288;2022-07-29T01:25:58;11.73;;;4.85;;
27071;SDS011;14613;46.308;25.288;2022-07-29T01:28:36;6.95;;;5.03;;
27071;SDS011;14613;46.308;25.288;2022-07-29T01:31:06;5.97;;;4.47;;
27071;SDS011;14613;46.308;25.288;2022-07-29T01:33:37;5.95;;;4.57;;
27071;SDS011;14613;46.308;25.288;2022-07-29T01:36:35;7.28;;;4.30;;
27071;SDS011;14613;46.308;25.288;2022-07-29T01:39:35;4.95;;;4.10;;
27071;SDS011;14613;46.308;25.288;2022-07-29T01:48:00;6.70;;;5.05;;
27071;SDS011;14613;46.308;25.288;2022-07-29T01:50:32;6.10;;;4.88;;
27071;SDS011;14613;46.308;25.288;2022-07-29T01:53:02;6.25;;;4.78;;
27071;SDS011;14613;46.308;25.288;2022-07-29T01:55:32;6.75;;;4.85;;
27071;SDS011;14613;46.308;25.288;2022-07-29T01:58:03;6.03;;;4.95;;
27071;SDS011;14613;46.308;25.288;2022-07-29T02:00:31;9.60;;;5.20;;
27071;SDS011;14613;46.308;25.288;2022-07-29T02:03:01;11.00;;;5.88;;
27071;SDS011;14613;46.308;25.288;2022-07-29T02:05:30;9.70;;;6.18;;
27071;SDS011;14613;46.308;25.288;2022-07-29T02:07:58;10.38;;;5.85;;
27071;SDS011;14613;46.308;25.288;2022-07-29T02:10:28;8.85;;;5.45;;
27071;SDS011;14613;46.308;25.288;2022-07-29T02:12:56;6.68;;;4.65;;
27071;SDS011;14613;46.308;25.288;2022-07-29T02:15:24;7.03;;;4.55;;
27071;SDS011;14613;46.308;25.288;2022-07-29T02:17:53;5.95;;;4.93;;
27071;SDS011;14613;46.308;25.288;2022-07-29T02:20:23;7.32;;;4.78;;
27071;SDS011;14613;46.308;25.288;2022-07-29T02:22:51;6.72;;;4.95;;
27071;SDS011;14613;46.308;25.288;2022-07-29T02:25:19;8.30;;;5.88;;
27071;SDS011;14613;46.308;25.288;2022-07-29T02:27:47;7.57;;;4.97;;
27071;SDS011;14613;46.308;25.288;2022-07-29T02:30:15;5.03;;;4.63;;
27071;SDS011;14613;46.308;25.288;2022-07-29T02:32:42;15.02;;;6.13;;
27071;SDS011;14613;46.308;25.288;2022-07-29T02:35:10;6.00;;;5.03;;
27071;SDS011;14613;46.308;25.288;2022-07-29T02:37:39;7.05;;;4.65;;
27071;SDS011;14613;46.308;25.288;2022-07-29T02:40:08;8.20;;;5.05;;
27071;SDS011;14613;46.308;25.288;2022-07-29T02:42:36;7.00;;;5.32;;
27071;SDS011;14613;46.308;25.288;2022-07-29T02:45:04;8.82;;;5.53;;
27071;SDS011;14613;46.308;25.288;2022-07-29T02:47:31;6.22;;;4.68;;
27071;SDS011;14613;46.308;25.288;2022-07-29T02:55:29;7.18;;;5.55;;
27071;SDS011;14613;46.308;25.288;2022-07-29T02:58:10;8.35;;;5.32;;
27071;SDS011;14613;46.308;25.288;2022-07-29T03:00:55;8.00;;;5.20;;
27071;SDS011;14613;46.308;25.288;2022-07-29T03:03:24;6.88;;;5.60;;
27071;SDS011;14613;46.308;25.288;2022-07-29T03:05:54;8.75;;;5.88;;
27071;SDS011;14613;46.308;25.288;2022-07-29T03:08:21;7.63;;;6.03;;
27071;SDS011;14613;46.308;25.288;2022-07-29T03:10:48;12.18;;;5.88;;
27071;SDS011;14613;46.308;25.288;2022-07-29T03:13:15;6.82;;;5.43;;
27071;SDS011;14613;46.308;25.288;2022-07-29T03:15:44;8.90;;;5.03;;
27071;SDS011;14613;46.308;25.288;2022-07-29T03:18:10;9.13;;;5.13;;
27071;SDS011;14613;46.308;25.288;2022-07-29T03:20:37;12.40;;;4.65;;
27071;SDS011;14613;46.308;25.288;2022-07-29T03:23:03;17.38;;;5.30;;
27071;SDS011;14613;46.308;25.288;2022-07-29T03:25:29;5.90;;;5.00;;
27071;SDS011;14613;46.308;25.288;2022-07-29T03:27:55;7.97;;;5.30;;
27071;SDS011;14613;46.308;25.288;2022-07-29T03:30:21;7.07;;;4.55;;
27071;SDS011;14613;46.308;25.288;2022-07-29T03:32:48;13.18;;;6.15;;
27071;SDS011;14613;46.308;25.288;2022-07-29T03:35:15;18.00;;;6.18;;
27071;SDS011;14613;46.308;25.288;2022-07-29T03:37:44;9.55;;;5.07;;
27071;SDS011;14613;46.308;25.288;2022-07-29T03:40:11;7.70;;;4.72;;
27071;SDS011;14613;46.308;25.288;2022-07-29T03:42:41;7.93;;;5.38;;
27071;SDS011;14613;46.308;25.288;2022-07-29T03:45:11;6.43;;;5.15;;
27071;SDS011;14613;46.308;25.288;2022-07-29T03:47:42;7.47;;;5.22;;
27071;SDS011;14613;46.308;25.288;2022-07-29T03:50:14;13.07;;;5.35;;
27071;SDS011;14613;46.308;25.288;2022-07-29T03:52:40;9.85;;;5.03;;
27071;SDS011;14613;46.308;25.288;2022-07-29T03:55:07;8.40;;;5.20;;
27071;SDS011;14613;46.308;25.288;2022-07-29T03:57:34;9.02;;;5.45;;
27071;SDS011;14613;46.308;25.288;2022-07-29T04:00:01;9.25;;;5.88;;
27071;SDS011;14613;46.308;25.288;2022-07-29T04:02:29;11.15;;;5.53;;
27071;SDS011;14613;46.308;25.288;2022-07-29T04:04:56;10.48;;;5.50;;
27071;SDS011;14613;46.308;25.288;2022-07-29T04:07:22;5.97;;;5.15;;
27071;SDS011;14613;46.308;25.288;2022-07-29T04:09:48;7.57;;;6.18;;
27071;SDS011;14613;46.308;25.288;2022-07-29T04:12:14;14.60;;;6.88;;
27071;SDS011;14613;46.308;25.288;2022-07-29T04:14:39;13.80;;;8.25;;
27071;SDS011;14613;46.308;25.288;2022-07-29T04:17:05;17.90;;;6.18;;
27071;SDS011;14613;46.308;25.288;2022-07-29T04:19:31;8.10;;;6.13;;
27071;SDS011;14613;46.308;25.288;2022-07-29T04:21:58;7.03;;;4.80;;
27071;SDS011;14613;46.308;25.288;2022-07-29T04:24:24;6.82;;;5.20;;
27071;SDS011;14613;46.308;25.288;2022-07-29T04:26:50;10.30;;;5.70;;
27071;SDS011;14613;46.308;25.288;2022-07-29T04:29:17;10.50;;;5.88;;
27071;SDS011;14613;46.308;25.288;2022-07-29T04:31:43;8.50;;;5.80;;
27071;SDS011;14613;46.308;25.288;2022-07-29T04:34:09;15.55;;;6.07;;
27071;SDS011;14613;46.308;25.288;2022-07-29T04:36:36;7.32;;;5.70;;
27071;SDS011;14613;46.308;25.288;2022-07-29T04:39:02;14.95;;;5.72;;
27071;SDS011;14613;46.308;25.288;2022-07-29T04:41:28;9.90;;;5.85;;
27071;SDS011;14613;46.308;25.288;2022-07-29T04:43:54;6.35;;;5.10;;
27071;SDS011;14613;46.308;25.288;2022-07-29T04:46:20;10.02;;;7.18;;
27071;SDS011;14613;46.308;25.288;2022-07-29T04:48:46;10.88;;;5.57;;
27071;SDS011;14613;46.308;25.288;2022-07-29T04:51:12;7.80;;;5.20;;
27071;SDS011;14613;46.308;25.288;2022-07-29T04:53:39;13.88;;;4.70;;
27071;SDS011;14613;46.308;25.288;2022-07-29T04:56:05;8.13;;;5.32;;
27071;SDS011;14613;46.308;25.288;2022-07-29T04:58:30;11.13;;;5.07;;
27071;SDS011;14613;46.308;25.288;2022-07-29T05:00:58;7.80;;;5.38;;
27071;SDS011;14613;46.308;25.288;2022-07-29T05:03:24;9.10;;;5.10;;
27071;SDS011;14613;46.308;25.288;2022-07-29T05:05:50;11.13;;;5.53;;
27071;SDS011;14613;46.308;25.288;2022-07-29T05:08:15;9.38;;;4.97;;
27071;SDS011;14613;46.308;25.288;2022-07-29T05:10:41;5.15;;;4.65;;
27071;SDS011;14613;46.308;25.288;2022-07-29T05:13:07;8.07;;;5.47;;
27071;SDS011;14613;46.308;25.288;2022-07-29T05:15:33;9.50;;;5.45;;
27071;SDS011;14613;46.308;25.288;2022-07-29T05:18:00;8.35;;;4.63;;
27071;SDS011;14613;46.308;25.288;2022-07-29T05:20:26;10.75;;;4.35;;
27071;SDS011;14613;46.308;25.288;2022-07-29T05:22:56;8.63;;;4.50;;
27071;SDS011;14613;46.308;25.288;2022-07-29T05:25:23;13.95;;;5.47;;
27071;SDS011;14613;46.308;25.288;2022-07-29T05:27:49;7.07;;;4.35;;
27071;SDS011;14613;46.308;25.288;2022-07-29T05:30:15;14.13;;;4.72;;
27071;SDS011;14613;46.308;25.288;2022-07-29T05:32:41;9.05;;;4.47;;
27071;SDS011;14613;46.308;25.288;2022-07-29T05:35:07;9.98;;;4.72;;
27071;SDS011;14613;46.308;25.288;2022-07-29T05:37:33;13.60;;;4.70;;
27071;SDS011;14613;46.308;25.288;2022-07-29T05:39:59;11.35;;;5.32;;
27071;SDS011;14613;46.308;25.288;2022-07-29T05:42:25;18.80;;;5.57;;
27071;SDS011;14613;46.308;25.288;2022-07-29T05:44:51;15.77;;;5.60;;
27071;SDS011;14613;46.308;25.288;2022-07-29T05:47:18;19.00;;;6.20;;
27071;SDS011;14613;46.308;25.288;2022-07-29T05:49:43;9.85;;;4.75;;
27071;SDS011;14613;46.308;25.288;2022-07-29T05:52:09;8.20;;;4.65;;
27071;SDS011;14613;46.308;25.288;2022-07-29T05:54:35;15.48;;;4.65;;
27071;SDS011;14613;46.308;25.288;2022-07-29T05:57:01;6.30;;;3.88;;
27071;SDS011;14613;46.308;25.288;2022-07-29T05:59:27;7.50;;;4.47;;
27071;SDS011;14613;46.308;25.288;2022-07-29T06:01:54;7.18;;;4.47;;
27071;SDS011;14613;46.308;25.288;2022-07-29T06:04:19;6.07;;;4.45;;
27071;SDS011;14613;46.308;25.288;2022-07-29T06:06:45;4.80;;;3.85;;
27071;SDS011;14613;46.308;25.288;2022-07-29T06:09:11;7.65;;;4.55;;
27071;SDS011;14613;46.308;25.288;2022-07-29T06:11:37;6.45;;;4.18;;
27071;SDS011;14613;46.308;25.288;2022-07-29T06:14:02;7.88;;;4.70;;
27071;SDS011;14613;46.308;25.288;2022-07-29T06:16:28;5.95;;;4.18;;
27071;SDS011;14613;46.308;25.288;2022-07-29T06:18:54;4.47;;;3.50;;
27071;SDS011;14613;46.308;25.288;2022-07-29T06:21:20;5.05;;;3.72;;
27071;SDS011;14613;46.308;25.288;2022-07-29T06:23:45;5.10;;;3.80;;
27071;SDS011;14613;46.308;25.288;2022-07-29T06:26:11;9.73;;;4.18;;
27071;SDS011;14613;46.308;25.288;2022-07-29T06:28:37;6.22;;;4.95;;
27071;SDS011;14613;46.308;25.288;2022-07-29T06:31:03;8.32;;;4.68;;
27071;SDS011;14613;46.308;25.288;2022-07-29T06:33:29;8.32;;;4.43;;
27071;SDS011;14613;46.308;25.288;2022-07-29T06:35:56;8.73;;;4.65;;
27071;SDS011;14613;46.308;25.288;2022-07-29T06:38:22;8.70;;;4.88;;
27071;SDS011;14613;46.308;25.288;2022-07-29T06:40:47;4.30;;;4.00;;
27071;SDS011;14613;46.308;25.288;2022-07-29T06:43:25;14.02;;;4.57;;
27071;SDS011;14613;46.308;25.288;2022-07-29T06:45:56;8.88;;;4.28;;
27071;SDS011;14613;46.308;25.288;2022-07-29T06:48:33;4.00;;;3.60;;
27071;SDS011;14613;46.308;25.288;2022-07-29T06:50:59;5.35;;;4.60;;
27071;SDS011;14613;46.308;25.288;2022-07-29T06:53:26;8.40;;;4.05;;
27071;SDS011;14613;46.308;25.288;2022-07-29T06:55:52;5.80;;;3.90;;
27071;SDS011;14613;46.308;25.288;2022-07-29T06:58:18;6.03;;;3.85;;
27071;SDS011;14613;46.308;25.288;2022-07-29T07:00:45;5.32;;;3.45;;
27071;SDS011;14613;46.308;25.288;2022-07-29T07:03:13;5.90;;;4.05;;
27071;SDS011;14613;46.308;25.288;2022-07-29T07:05:39;5.57;;;3.90;;
27071;SDS011;14613;46.308;25.288;2022-07-29T07:08:05;9.63;;;3.67;;
27071;SDS011;14613;46.308;25.288;2022-07-29T07:10:32;8.38;;;3.70;;
27071;SDS011;14613;46.308;25.288;2022-07-29T07:12:58;6.55;;;3.97;;
27071;SDS011;14613;46.308;25.288;2022-07-29T07:15:24;4.95;;;3.63;;
27071;SDS011;14613;46.308;25.288;2022-07-29T07:17:50;5.00;;;3.33;;
27071;SDS011;14613;46.308;25.288;2022-07-29T07:20:16;4.45;;;3.97;;
27071;SDS011;14613;46.308;25.288;2022-07-29T07:22:42;4.80;;;4.30;;
27071;SDS011;14613;46.308;25.288;2022-07-29T07:25:09;6.22;;;3.50;;
27071;SDS011;14613;46.308;25.288;2022-07-29T07:27:35;29.63;;;6.07;;
27071;SDS011;14613;46.308;25.288;2022-07-29T07:30:02;14.05;;;4.13;;
27071;SDS011;14613;46.308;25.288;2022-07-29T07:32:30;8.80;;;4.22;;
27071;SDS011;14613;46.308;25.288;2022-07-29T07:34:57;5.07;;;3.92;;
27071;SDS011;14613;46.308;25.288;2022-07-29T07:37:23;9.23;;;4.50;;
27071;SDS011;14613;46.308;25.288;2022-07-29T07:39:50;11.88;;;4.28;;
27071;SDS011;14613;46.308;25.288;2022-07-29T07:42:16;4.75;;;3.95;;
27071;SDS011;14613;46.308;25.288;2022-07-29T07:44:42;3.95;;;3.45;;
27071;SDS011;14613;46.308;25.288;2022-07-29T07:47:10;5.35;;;3.88;;
27071;SDS011;14613;46.308;25.288;2022-07-29T07:49:37;8.02;;;3.90;;
27071;SDS011;14613;46.308;25.288;2022-07-29T07:52:03;4.78;;;3.45;;
27071;SDS011;14613;46.308;25.288;2022-07-29T07:54:29;7.88;;;3.85;;
27071;SDS011;14613;46.308;25.288;2022-07-29T07:56:56;4.00;;;3.58;;
27071;SDS011;14613;46.308;25.288;2022-07-29T07:59:22;5.30;;;4.00;;
27071;SDS011;14613;46.308;25.288;2022-07-29T08:01:48;9.63;;;4.90;;
27071;SDS011;14613;46.308;25.288;2022-07-29T08:04:14;5.20;;;3.78;;
27071;SDS011;14613;46.308;25.288;2022-07-29T08:06:40;8.93;;;4.45;;
27071;SDS011;14613;46.308;25.288;2022-07-29T08:09:06;10.52;;;3.88;;
27071;SDS011;14613;46.308;25.288;2022-07-29T08:11:32;8.25;;;4.05;;
27071;SDS011;14613;46.308;25.288;2022-07-29T08:13:58;5.50;;;3.80;;
27071;SDS011;14613;46.308;25.288;2022-07-29T08:16:26;4.18;;;3.78;;
27071;SDS011;14613;46.308;25.288;2022-07-29T08:18:52;4.50;;;3.72;;
27071;SDS011;14613;46.308;25.288;2022-07-29T08:21:22;7.43;;;3.72;;
27071;SDS011;14613;46.308;25.288;2022-07-29T08:23:49;6.18;;;4.25;;
27071;SDS011;14613;46.308;25.288;2022-07-29T08:26:18;6.40;;;4.53;;
27071;SDS011;14613;46.308;25.288;2022-07-29T08:28:45;6.10;;;3.58;;
27071;SDS011;14613;46.308;25.288;2022-07-29T08:31:14;7.28;;;3.80;;
27071;SDS011;14613;46.308;25.288;2022-07-29T08:33:41;5.18;;;3.83;;
27071;SDS011;14613;46.308;25.288;2022-07-29T08:36:07;4.70;;;4.30;;
27071;SDS011;14613;46.308;25.288;2022-07-29T08:38:33;4.00;;;3.70;;
27071;SDS011;14613;46.308;25.288;2022-07-29T08:41:02;4.82;;;3.85;;
27071;SDS011;14613;46.308;25.288;2022-07-29T08:43:28;5.18;;;4.43;;
27071;SDS011;14613;46.308;25.288;2022-07-29T08:45:54;6.43;;;4.03;;
27071;SDS011;14613;46.308;25.288;2022-07-29T08:48:23;5.90;;;3.80;;
27071;SDS011;14613;46.308;25.288;2022-07-29T08:50:50;6.68;;;3.92;;
27071;SDS011;14613;46.308;25.288;2022-07-29T08:53:19;8.23;;;4.20;;
27071;SDS011;14613;46.308;25.288;2022-07-29T08:55:47;7.10;;;4.13;;
27071;SDS011;14613;46.308;25.288;2022-07-29T08:58:15;5.38;;;4.07;;
27071;SDS011;14613;46.308;25.288;2022-07-29T09:00:43;6.93;;;3.88;;
27071;SDS011;14613;46.308;25.288;2022-07-29T09:03:18;4.68;;;3.80;;
27071;SDS011;14613;46.308;25.288;2022-07-29T09:05:45;6.13;;;3.70;;
27071;SDS011;14613;46.308;25.288;2022-07-29T09:08:15;4.70;;;3.88;;
27071;SDS011;14613;46.308;25.288;2022-07-29T09:10:42;5.40;;;4.22;;
27071;SDS011;14613;46.308;25.288;2022-07-29T09:13:09;5.28;;;3.92;;
27071;SDS011;14613;46.308;25.288;2022-07-29T09:15:34;6.38;;;4.32;;
27071;SDS011;14613;46.308;25.288;2022-07-29T09:18:00;4.68;;;4.03;;
27071;SDS011;14613;46.308;25.288;2022-07-29T09:20:27;4.10;;;3.80;;
27071;SDS011;14613;46.308;25.288;2022-07-29T09:23:12;4.55;;;4.15;;
27071;SDS011;14613;46.308;25.288;2022-07-29T09:25:41;7.25;;;4.43;;
27071;SDS011;14613;46.308;25.288;2022-07-29T09:28:11;4.72;;;4.32;;
27071;SDS011;14613;46.308;25.288;2022-07-29T09:33:20;7.05;;;4.25;;
27071;SDS011;14613;46.308;25.288;2022-07-29T09:38:30;4.43;;;4.03;;
27071;SDS011;14613;46.308;25.288;2022-07-29T09:40:57;4.78;;;3.72;;
27071;SDS011;14613;46.308;25.288;2022-07-29T09:43:27;5.45;;;4.55;;
27071;SDS011;14613;46.308;25.288;2022-07-29T09:45:53;9.00;;;4.25;;
27071;SDS011;14613;46.308;25.288;2022-07-29T09:48:21;6.20;;;4.13;;
27071;SDS011;14613;46.308;25.288;2022-07-29T09:50:49;7.68;;;3.78;;
27071;SDS011;14613;46.308;25.288;2022-07-29T09:53:35;4.40;;;3.83;;
27071;SDS011;14613;46.308;25.288;2022-07-29T09:56:02;8.77;;;4.03;;
27071;SDS011;14613;46.308;25.288;2022-07-29T09:58:29;12.05;;;4.57;;
27071;SDS011;14613;46.308;25.288;2022-07-29T10:00:55;10.80;;;3.95;;
27071;SDS011;14613;46.308;25.288;2022-07-29T10:03:22;4.65;;;4.10;;
27071;SDS011;14613;46.308;25.288;2022-07-29T10:08:34;4.93;;;4.15;;
27071;SDS011;14613;46.308;25.288;2022-07-29T10:13:38;6.57;;;4.03;;
27071;SDS011;14613;46.308;25.288;2022-07-29T10:16:06;5.25;;;4.03;;
27071;SDS011;14613;46.308;25.288;2022-07-29T10:18:33;7.63;;;4.03;;
27071;SDS011;14613;46.308;25.288;2022-07-29T10:20:59;6.47;;;4.47;;
27071;SDS011;14613;46.308;25.288;2022-07-29T10:23:26;4.93;;;3.63;;
27071;SDS011;14613;46.308;25.288;2022-07-29T10:25:55;6.53;;;4.10;;
27071;SDS011;14613;46.308;25.288;2022-07-29T10:28:22;8.07;;;3.88;;
27071;SDS011;14613;46.308;25.288;2022-07-29T10:30:50;4.55;;;4.05;;
27071;SDS011;14613;46.308;25.288;2022-07-29T10:36:11;4.18;;;3.78;;
27071;SDS011;14613;46.308;25.288;2022-07-29T10:38:55;5.38;;;3.90;;
27071;SDS011;14613;46.308;25.288;2022-07-29T10:44:39;8.13;;;4.30;;
27071;SDS011;14613;46.308;25.288;2022-07-29T10:47:06;4.82;;;4.07;;
27071;SDS011;14613;46.308;25.288;2022-07-29T10:49:32;3.63;;;3.33;;
27071;SDS011;14613;46.308;25.288;2022-07-29T10:52:02;4.15;;;3.53;;
27071;SDS011;14613;46.308;25.288;2022-07-29T10:54:41;4.80;;;3.20;;
27071;SDS011;14613;46.308;25.288;2022-07-29T10:59:42;3.83;;;3.50;;
27071;SDS011;14613;46.308;25.288;2022-07-29T11:02:55;4.65;;;3.60;;
27071;SDS011;14613;46.308;25.288;2022-07-29T11:05:05;8.02;;;3.72;;
27071;SDS011;14613;46.308;25.288;2022-07-29T11:07:33;4.25;;;3.92;;
27071;SDS011;14613;46.308;25.288;2022-07-29T11:15:11;5.30;;;3.92;;
27071;SDS011;14613;46.308;25.288;2022-07-29T11:31:14;12.18;;;5.47;;
27071;SDS011;14613;46.308;25.288;2022-07-29T11:33:44;9.10;;;4.88;;
27071;SDS011;14613;46.308;25.288;2022-07-29T11:36:10;6.07;;;5.15;;
27071;SDS011;14613;46.308;25.288;2022-07-29T11:38:38;4.72;;;4.35;;
27071;SDS011;14613;46.308;25.288;2022-07-29T11:43:46;7.43;;;5.43;;
27071;SDS011;14613;46.308;25.288;2022-07-29T11:46:12;7.82;;;4.95;;
27071;SDS011;14613;46.308;25.288;2022-07-29T11:48:41;11.18;;;5.38;;
27071;SDS011;14613;46.308;25.288;2022-07-29T11:51:11;10.98;;;5.80;;
27071;SDS011;14613;46.308;25.288;2022-07-29T11:53:38;7.07;;;5.50;;
27071;SDS011;14613;46.308;25.288;2022-07-29T11:56:04;11.60;;;5.50;;
27071;SDS011;14613;46.308;25.288;2022-07-29T11:58:38;8.23;;;5.32;;
27071;SDS011;14613;46.308;25.288;2022-07-29T12:01:03;9.63;;;6.32;;
27071;SDS011;14613;46.308;25.288;2022-07-29T12:03:30;11.93;;;5.65;;
27071;SDS011;14613;46.308;25.288;2022-07-29T12:05:56;7.47;;;5.00;;
27071;SDS011;14613;46.308;25.288;2022-07-29T12:08:22;10.57;;;4.53;;
27071;SDS011;14613;46.308;25.288;2022-07-29T12:10:51;5.82;;;4.90;;
27071;SDS011;14613;46.308;25.288;2022-07-29T12:13:20;5.03;;;4.07;;
27071;SDS011;14613;46.308;25.288;2022-07-29T12:15:54;4.85;;;3.95;;
27071;SDS011;14613;46.308;25.288;2022-07-29T12:18:22;8.10;;;5.55;;
27071;SDS011;14613;46.308;25.288;2022-07-29T12:20:48;8.63;;;3.80;;
27071;SDS011;14613;46.308;25.288;2022-07-29T12:23:21;6.10;;;2.95;;
27071;SDS011;14613;46.308;25.288;2022-07-29T12:25:47;4.63;;;3.50;;
27071;SDS011;14613;46.308;25.288;2022-07-29T12:28:13;4.80;;;3.90;;
27071;SDS011;14613;46.308;25.288;2022-07-29T12:30:47;3.47;;;3.17;;
27071;SDS011;14613;46.308;25.288;2022-07-29T12:35:41;6.68;;;3.00;;
27071;SDS011;14613;46.308;25.288;2022-07-29T12:38:10;5.80;;;3.08;;
27071;SDS011;14613;46.308;25.288;2022-07-29T12:40:37;10.98;;;3.00;;
27071;SDS011;14613;46.308;25.288;2022-07-29T12:43:19;5.03;;;3.70;;
27071;SDS011;14613;46.308;25.288;2022-07-29T12:45:47;3.15;;;2.85;;
27071;SDS011;14613;46.308;25.288;2022-07-29T12:48:35;4.28;;;3.55;;
27071;SDS011;14613;46.308;25.288;2022-07-29T12:51:03;6.60;;;3.97;;
27071;SDS011;14613;46.308;25.288;2022-07-29T12:53:30;4.50;;;3.63;;
27071;SDS011;14613;46.308;25.288;2022-07-29T12:55:57;5.05;;;3.70;;
27071;SDS011;14613;46.308;25.288;2022-07-29T13:03:25;8.25;;;3.50;;
27071;SDS011;14613;46.308;25.288;2022-07-29T13:05:50;4.40;;;2.97;;
27071;SDS011;14613;46.308;25.288;2022-07-29T13:08:17;7.55;;;3.40;;
27071;SDS011;14613;46.308;25.288;2022-07-29T13:10:45;6.35;;;4.35;;
27071;SDS011;14613;46.308;25.288;2022-07-29T13:13:12;5.75;;;3.53;;
27071;SDS011;14613;46.308;25.288;2022-07-29T13:15:40;6.47;;;5.10;;
27071;SDS011;14613;46.308;25.288;2022-07-29T13:18:27;4.70;;;4.25;;
27071;SDS011;14613;46.308;25.288;2022-07-29T13:20:53;6.80;;;4.38;;
27071;SDS011;14613;46.308;25.288;2022-07-29T13:23:19;7.13;;;4.30;;
27071;SDS011;14613;46.308;25.288;2022-07-29T13:25:45;11.60;;;4.05;;
27071;SDS011;14613;46.308;25.288;2022-07-29T13:28:10;4.88;;;3.85;;
27071;SDS011;14613;46.308;25.288;2022-07-29T13:30:36;4.10;;;3.80;;
27071;SDS011;14613;46.308;25.288;2022-07-29T13:33:04;5.22;;;3.78;;
27071;SDS011;14613;46.308;25.288;2022-07-29T13:35:29;6.78;;;4.32;;
27071;SDS011;14613;46.308;25.288;2022-07-29T13:37:55;6.57;;;4.53;;
27071;SDS011;14613;46.308;25.288;2022-07-29T13:40:21;6.80;;;4.43;;
27071;SDS011;14613;46.308;25.288;2022-07-29T13:42:47;7.07;;;4.60;;
27071;SDS011;14613;46.308;25.288;2022-07-29T13:45:13;3.65;;;3.35;;
27071;SDS011;14613;46.308;25.288;2022-07-29T13:47:39;6.25;;;4.13;;
27071;SDS011;14613;46.308;25.288;2022-07-29T13:50:05;5.28;;;4.10;;
27071;SDS011;14613;46.308;25.288;2022-07-29T13:52:32;4.88;;;3.88;;
27071;SDS011;14613;46.308;25.288;2022-07-29T13:54:58;5.82;;;3.72;;
27071;SDS011;14613;46.308;25.288;2022-07-29T13:57:24;8.27;;;4.00;;
27071;SDS011;14613;46.308;25.288;2022-07-29T13:59:50;6.50;;;3.53;;
27071;SDS011;14613;46.308;25.288;2022-07-29T14:02:16;4.30;;;3.88;;
27071;SDS011;14613;46.308;25.288;2022-07-29T14:04:41;4.40;;;3.97;;
27071;SDS011;14613;46.308;25.288;2022-07-29T14:07:07;8.15;;;4.57;;
27071;SDS011;14613;46.308;25.288;2022-07-29T14:09:33;6.63;;;3.83;;
27071;SDS011;14613;46.308;25.288;2022-07-29T14:11:59;4.10;;;3.70;;
27071;SDS011;14613;46.308;25.288;2022-07-29T14:14:25;11.57;;;4.13;;
27071;SDS011;14613;46.308;25.288;2022-07-29T14:16:50;4.25;;;3.85;;
27071;SDS011;14613;46.308;25.288;2022-07-29T14:19:16;7.97;;;3.50;;
27071;SDS011;14613;46.308;25.288;2022-07-29T14:21:42;11.52;;;4.93;;
27071;SDS011;14613;46.308;25.288;2022-07-29T14:24:08;4.70;;;4.30;;
27071;SDS011;14613;46.308;25.288;2022-07-29T14:26:34;6.72;;;4.90;;
27071;SDS011;14613;46.308;25.288;2022-07-29T14:28:59;7.22;;;4.35;;
27071;SDS011;14613;46.308;25.288;2022-07-29T14:31:25;7.40;;;4.55;;
27071;SDS011;14613;46.308;25.288;2022-07-29T14:33:51;5.40;;;4.40;;
27071;SDS011;14613;46.308;25.288;2022-07-29T14:36:16;8.23;;;4.57;;
27071;SDS011;14613;46.308;25.288;2022-07-29T14:38:42;6.63;;;4.72;;
27071;SDS011;14613;46.308;25.288;2022-07-29T14:41:08;6.82;;;4.03;;
27071;SDS011;14613;46.308;25.288;2022-07-29T14:43:34;10.93;;;4.93;;
27071;SDS011;14613;46.308;25.288;2022-07-29T14:46:00;4.80;;;3.80;;
27071;SDS011;14613;46.308;25.288;2022-07-29T14:48:26;8.82;;;4.00;;
27071;SDS011;14613;46.308;25.288;2022-07-29T14:50:52;9.93;;;4.82;;
27071;SDS011;14613;46.308;25.288;2022-07-29T14:53:19;7.85;;;5.22;;
27071;SDS011;14613;46.308;25.288;2022-07-29T14:55:45;4.82;;;4.28;;
27071;SDS011;14613;46.308;25.288;2022-07-29T14:58:11;5.63;;;4.22;;
27071;SDS011;14613;46.308;25.288;2022-07-29T15:00:37;6.63;;;4.25;;
27071;SDS011;14613;46.308;25.288;2022-07-29T15:03:03;7.40;;;4.28;;
27071;SDS011;14613;46.308;25.288;2022-07-29T15:05:30;4.35;;;3.60;;
27071;SDS011;14613;46.308;25.288;2022-07-29T15:07:57;5.93;;;5.22;;
27071;SDS011;14613;46.308;25.288;2022-07-29T15:10:24;4.60;;;4.07;;
27071;SDS011;14613;46.308;25.288;2022-07-29T15:12:52;8.05;;;5.25;;
27071;SDS011;14613;46.308;25.288;2022-07-29T15:15:18;9.13;;;5.47;;
27071;SDS011;14613;46.308;25.288;2022-07-29T15:17:43;6.22;;;4.93;;
27071;SDS011;14613;46.308;25.288;2022-07-29T15:20:10;7.03;;;3.83;;
27071;SDS011;14613;46.308;25.288;2022-07-29T15:22:36;8.85;;;4.13;;
27071;SDS011;14613;46.308;25.288;2022-07-29T15:25:03;7.88;;;4.53;;
27071;SDS011;14613;46.308;25.288;2022-07-29T15:27:29;9.45;;;4.47;;
27071;SDS011;14613;46.308;25.288;2022-07-29T15:29:55;5.40;;;4.20;;
27071;SDS011;14613;46.308;25.288;2022-07-29T15:32:21;5.88;;;4.18;;
27071;SDS011;14613;46.308;25.288;2022-07-29T15:34:47;8.07;;;3.42;;
27071;SDS011;14613;46.308;25.288;2022-07-29T15:37:13;6.57;;;3.53;;
27071;SDS011;14613;46.308;25.288;2022-07-29T15:39:39;7.25;;;3.10;;
27071;SDS011;14613;46.308;25.288;2022-07-29T15:42:05;4.47;;;2.45;;